createdAt,value
2023-02-04T00:00:23.460Z,96.50
2023-02-04T00:02:50.968Z,96.40
2023-02-04T00:05:18.772Z,96.30
2023-02-04T00:07:45.708Z,96.10
2023-02-04T00:10:12.717Z,96.10
2023-02-04T00:12:39.764Z,96.00
2023-02-04T00:15:06.994Z,95.90
2023-02-04T00:17:33.872Z,95.80
2023-02-04T00:20:00.749Z,95.70
2023-02-04T00:22:29.051Z,95.70
2023-02-04T00:24:56.107Z,95.60
2023-02-04T00:27:23.032Z,95.60
2023-02-04T00:29:49.976Z,95.60
2023-02-04T00:32:17.073Z,95.50
2023-02-04T00:34:44.045Z,95.50
2023-02-04T00:37:10.985Z,95.50
2023-02-04T00:39:38.324Z,95.50
2023-02-04T00:42:06.392Z,95.50
2023-02-04T00:44:33.325Z,95.50
2023-02-04T00:47:00.292Z,95.50
2023-02-04T00:49:27.177Z,95.50
2023-02-04T00:51:54.131Z,95.50
2023-02-04T00:54:21.244Z,95.50
2023-02-04T00:56:48.143Z,95.50
2023-02-04T00:59:15.697Z,95.50
2023-02-04T01:01:42.997Z,95.50
2023-02-04T01:04:10.147Z,95.60
2023-02-04T01:06:37.597Z,95.70
2023-02-04T01:09:05.158Z,95.80
2023-02-04T01:11:32.654Z,95.90
2023-02-04T01:13:59.869Z,96.00
2023-02-04T01:16:26.829Z,96.00
2023-02-04T01:18:55.971Z,96.10
2023-02-04T01:21:24.817Z,96.10
2023-02-04T01:23:52.092Z,96.10
2023-02-04T01:26:19.817Z,96.00
2023-02-04T01:28:47.571Z,96.00
2023-02-04T01:31:15.337Z,95.90
2023-02-04T01:33:42.514Z,95.90
2023-02-04T01:36:09.929Z,95.80
2023-02-04T01:38:36.848Z,95.80
2023-02-04T01:41:06.246Z,95.80
2023-02-04T01:43:34.111Z,95.90
2023-02-04T01:46:02.550Z,95.90
2023-02-04T01:48:30.520Z,96.00
2023-02-04T01:51:06.375Z,96.00
2023-02-04T01:53:35.073Z,96.00
2023-02-04T01:56:14.473Z,96.10
2023-02-04T01:58:41.392Z,96.20
2023-02-04T02:01:15.543Z,96.20
2023-02-04T02:03:42.990Z,96.30
2023-02-04T02:06:10.951Z,96.30
2023-02-04T02:08:38.358Z,96.40
2023-02-04T02:11:05.520Z,96.40
2023-02-04T02:13:32.535Z,96.30
2023-02-04T02:15:59.426Z,96.20
2023-02-04T02:18:26.312Z,96.20
2023-02-04T02:20:53.292Z,96.20
2023-02-04T02:23:48.490Z,96.20
2023-02-04T02:26:17.281Z,96.20
2023-02-04T02:28:45.503Z,96.20
2023-02-04T02:31:12.976Z,96.20
2023-02-04T02:33:40.107Z,96.20
2023-02-04T02:36:07.449Z,96.20
2023-02-04T02:38:34.440Z,96.20
2023-02-04T02:41:01.735Z,96.10
2023-02-04T02:43:29.649Z,96.00
2023-02-04T02:46:00.121Z,96.00
2023-02-04T02:48:27.160Z,95.90
2023-02-04T02:50:54.111Z,95.80
2023-02-04T02:53:22.429Z,95.80
2023-02-04T02:55:49.975Z,95.90
2023-02-04T02:58:28.814Z,95.90
2023-02-04T03:00:57.173Z,95.90
2023-02-04T03:03:32.451Z,95.90
2023-02-04T03:06:08.675Z,96.00
2023-02-04T03:08:36.255Z,95.90
2023-02-04T03:11:03.600Z,95.90
2023-02-04T03:13:31.470Z,96.00
2023-02-04T03:15:58.766Z,96.00
2023-02-04T03:18:25.825Z,96.10
2023-02-04T03:20:52.902Z,96.10
2023-02-04T03:23:20.702Z,96.10
2023-02-04T03:25:47.851Z,96.20
2023-02-04T03:28:14.854Z,96.30
2023-02-04T03:30:41.923Z,96.40
2023-02-04T03:33:08.905Z,96.40
2023-02-04T03:35:35.846Z,96.40
2023-02-04T03:38:02.781Z,96.40
2023-02-04T03:40:30.148Z,96.50
2023-02-04T03:42:57.322Z,96.60
2023-02-04T03:45:24.937Z,96.60
2023-02-04T03:47:51.985Z,96.70
2023-02-04T03:50:18.998Z,96.80
2023-02-04T03:52:45.925Z,96.80
2023-02-04T03:55:12.825Z,96.80
2023-02-04T03:57:39.728Z,96.80
2023-02-04T04:00:07.365Z,96.70
2023-02-04T04:02:41.076Z,96.60
2023-02-04T04:05:09.280Z,96.50
2023-02-04T04:07:36.161Z,96.40
2023-02-04T04:10:03.729Z,96.30
2023-02-04T04:12:30.596Z,96.30
2023-02-04T04:14:57.513Z,96.30
2023-02-04T04:17:24.423Z,96.30
2023-02-04T04:19:51.310Z,96.20
2023-02-04T04:22:18.383Z,96.20
2023-02-04T04:24:45.446Z,96.30
2023-02-04T04:27:12.312Z,96.30
2023-02-04T04:29:39.262Z,96.40
2023-02-04T04:32:06.283Z,96.40
2023-02-04T04:34:33.319Z,96.40
2023-02-04T04:37:00.246Z,96.50
2023-02-04T04:39:27.121Z,96.50
2023-02-04T04:41:53.985Z,96.60
2023-02-04T04:44:20.882Z,96.70
2023-02-04T04:46:47.924Z,96.60
2023-02-04T04:49:14.818Z,96.50
2023-02-04T04:51:41.687Z,96.50
2023-02-04T04:54:08.633Z,96.50
2023-02-04T04:56:35.501Z,96.60
2023-02-04T04:59:03.344Z,96.60
2023-02-04T05:01:30.346Z,96.60
2023-02-04T05:03:57.251Z,96.50
2023-02-04T05:06:25.428Z,96.50
2023-02-04T05:08:53.030Z,96.50
2023-02-04T05:11:20.659Z,96.40
2023-02-04T05:13:47.978Z,96.40
2023-02-04T05:16:15.949Z,96.30
2023-02-04T05:18:43.043Z,96.30
2023-02-04T05:21:09.933Z,96.30
2023-02-04T05:23:36.817Z,96.30
2023-02-04T05:26:03.708Z,96.40
2023-02-04T05:28:30.610Z,96.30
2023-02-04T05:30:57.598Z,96.40
2023-02-04T05:33:24.526Z,96.40
2023-02-04T05:35:51.418Z,96.30
2023-02-04T05:38:18.333Z,96.30
2023-02-04T05:40:45.228Z,96.30
2023-02-04T05:43:12.207Z,96.40
2023-02-04T05:45:39.199Z,96.30
2023-02-04T05:48:06.167Z,96.30
2023-02-04T05:50:33.580Z,96.30
2023-02-04T05:53:10.020Z,96.40
2023-02-04T05:55:36.957Z,96.40
2023-02-04T05:58:03.840Z,96.40
2023-02-04T06:00:31.002Z,96.40
2023-02-04T06:02:58.108Z,96.40
2023-02-04T06:05:25.052Z,96.40
2023-02-04T06:07:52.001Z,96.40
2023-02-04T06:10:18.997Z,96.30
2023-02-04T06:12:45.863Z,96.30
2023-02-04T06:15:13.056Z,96.40
2023-02-04T06:17:40.555Z,96.40
2023-02-04T06:20:09.308Z,96.50
2023-02-04T06:22:36.178Z,96.60
2023-02-04T06:25:03.085Z,96.50
2023-02-04T06:27:29.974Z,96.40
2023-02-04T06:29:57.413Z,96.30
2023-02-04T06:32:24.453Z,96.40
2023-02-04T06:34:51.363Z,96.40
2023-02-04T06:37:18.315Z,96.30
2023-02-04T06:39:45.249Z,96.30
2023-02-04T06:42:12.134Z,96.30
2023-02-04T06:44:39.026Z,96.30
2023-02-04T06:47:05.915Z,96.40
2023-02-04T06:49:32.797Z,96.30
2023-02-04T06:51:59.704Z,96.30
2023-02-04T06:54:26.577Z,96.40
2023-02-04T06:56:53.559Z,96.40
2023-02-04T06:59:20.442Z,96.50
2023-02-04T07:01:47.372Z,96.50
2023-02-04T07:04:14.313Z,96.60
2023-02-04T07:06:41.198Z,96.60
2023-02-04T07:09:08.111Z,96.70
2023-02-04T07:11:34.968Z,96.70
2023-02-04T07:14:02.458Z,96.80
2023-02-04T07:16:29.327Z,96.80
2023-02-04T07:18:56.198Z,96.80
2023-02-04T07:21:23.084Z,96.90
2023-02-04T07:23:49.958Z,96.90
2023-02-04T07:26:16.843Z,96.90
2023-02-04T07:28:44.482Z,97.20
2023-02-04T07:31:11.513Z,96.90
2023-02-04T07:33:38.518Z,96.90
2023-02-04T07:36:05.528Z,97.00
2023-02-04T07:38:32.430Z,97.00
2023-02-04T07:40:59.357Z,97.10
2023-02-04T07:43:26.376Z,97.10
2023-02-04T07:45:53.284Z,97.40
2023-02-04T07:48:20.158Z,97.10
2023-02-04T07:50:47.058Z,97.20
2023-02-04T07:53:14.304Z,97.10
2023-02-04T07:55:41.225Z,97.10
2023-02-04T07:58:08.157Z,97.00
2023-02-04T08:00:35.041Z,97.00
2023-02-04T08:03:01.956Z,97.00
2023-02-04T08:05:30.372Z,97.00
2023-02-04T08:07:58.522Z,97.00
2023-02-04T08:10:25.447Z,97.00
2023-02-04T08:12:52.314Z,96.90
2023-02-04T08:15:19.209Z,97.00
2023-02-04T08:17:46.076Z,97.00
2023-02-04T08:20:13.026Z,97.10
2023-02-04T08:22:40.065Z,97.20
2023-02-04T08:25:07.378Z,97.20
2023-02-04T08:27:34.259Z,97.20
2023-02-04T08:30:01.162Z,97.00
2023-02-04T08:32:29.236Z,96.90
2023-02-04T08:34:56.142Z,96.80
2023-02-04T08:37:23.109Z,96.70
2023-02-04T08:39:50.007Z,96.70
2023-02-04T08:42:17.178Z,96.70
2023-02-04T08:44:44.266Z,96.70
2023-02-04T08:47:11.798Z,96.80
2023-02-04T08:49:41.929Z,96.80
2023-02-04T08:52:09.025Z,96.90
2023-02-04T08:54:36.186Z,97.00
2023-02-04T08:57:03.632Z,97.20
2023-02-04T08:59:30.737Z,97.10
2023-02-04T09:01:57.707Z,97.00
2023-02-04T09:04:24.926Z,96.90
2023-02-04T09:06:52.152Z,96.70
2023-02-04T09:09:21.615Z,96.50
2023-02-04T09:11:49.476Z,96.20
2023-02-04T09:14:17.170Z,96.20
2023-02-04T09:16:44.121Z,96.10
2023-02-04T09:19:12.780Z,96.00
2023-02-04T09:21:39.730Z,96.00
2023-02-04T09:24:06.620Z,96.20
2023-02-04T09:26:33.530Z,95.90
2023-02-04T09:29:00.428Z,95.80
2023-02-04T09:31:27.401Z,95.90
2023-02-04T09:33:54.360Z,96.10
2023-02-04T09:36:21.380Z,96.20
2023-02-04T09:38:48.261Z,95.90
2023-02-04T09:41:15.370Z,96.10
2023-02-04T09:43:45.115Z,96.10
2023-02-04T09:46:23.181Z,96.10
2023-02-04T09:48:50.989Z,95.60
2023-02-04T09:51:22.766Z,95.80
2023-02-04T09:53:50.345Z,95.40
2023-02-04T09:56:19.262Z,95.30
2023-02-04T09:58:46.331Z,95.00
2023-02-04T10:01:19.246Z,94.90
2023-02-04T10:03:50.151Z,94.80
2023-02-04T10:06:21.142Z,94.10
2023-02-04T10:08:50.737Z,94.40
2023-02-04T10:11:20.033Z,93.70
2023-02-04T10:13:50.759Z,93.70
2023-02-04T10:16:29.868Z,94.00
2023-02-04T10:19:07.207Z,94.10
2023-02-04T10:21:39.807Z,94.00
2023-02-04T10:24:26.440Z,94.10
2023-02-04T10:26:54.012Z,93.30
2023-02-04T10:29:25.705Z,93.70
2023-02-04T10:31:53.267Z,93.50
2023-02-04T10:34:39.736Z,92.60
2023-02-04T10:37:20.578Z,92.40
2023-02-04T10:39:49.202Z,92.10
2023-02-04T10:42:30.528Z,90.70
2023-02-04T10:44:58.222Z,88.70
2023-02-04T10:47:31.459Z,90.20
2023-02-04T10:50:24.222Z,90.20
2023-02-04T10:53:18.518Z,89.40
2023-02-04T10:55:47.804Z,89.60
2023-02-04T10:58:23.173Z,88.00
2023-02-04T11:00:50.067Z,88.00
2023-02-04T11:03:26.608Z,87.40
2023-02-04T11:05:58.268Z,88.40
2023-02-04T11:08:33.615Z,87.40
2023-02-04T11:11:19.303Z,88.10
2023-02-04T11:14:03.161Z,88.00
2023-02-04T11:16:35.433Z,88.50
2023-02-04T11:19:12.170Z,87.90
2023-02-04T11:21:38.907Z,88.20
2023-02-04T11:24:05.653Z,89.20
2023-02-04T11:26:38.223Z,88.80
2023-02-04T11:29:04.964Z,88.70
2023-02-04T11:31:34.684Z,88.60
2023-02-04T11:34:15.039Z,88.30
2023-02-04T11:37:03.785Z,87.10
2023-02-04T11:39:47.784Z,87.30
2023-02-04T11:42:23.371Z,87.30
2023-02-04T11:44:59.445Z,85.80
2023-02-04T11:47:28.103Z,85.10
2023-02-04T11:50:03.572Z,85.60
2023-02-04T11:52:30.535Z,86.10
2023-02-04T11:55:00.677Z,85.30
2023-02-04T11:57:28.133Z,84.90
2023-02-04T11:59:55.463Z,83.80
2023-02-04T12:02:26.059Z,85.00
2023-02-04T12:05:13.350Z,85.00
2023-02-04T12:07:40.509Z,83.10
2023-02-04T12:10:23.275Z,83.10
2023-02-04T12:12:58.051Z,84.50
2023-02-04T12:15:36.201Z,83.60
2023-02-04T12:18:09.845Z,84.20
2023-02-04T12:20:37.433Z,83.80
2023-02-04T12:23:05.309Z,83.30
2023-02-04T12:25:32.855Z,83.50
2023-02-04T12:28:00.121Z,81.80
2023-02-04T12:30:27.286Z,80.40
2023-02-04T12:32:54.171Z,80.90
2023-02-04T12:35:21.075Z,81.00
2023-02-04T12:37:47.953Z,80.90
2023-02-04T12:40:18.014Z,81.20
2023-02-04T12:42:45.068Z,81.30
2023-02-04T12:45:14.909Z,81.40
2023-02-04T12:47:42.046Z,81.80
2023-02-04T12:50:11.362Z,81.90
2023-02-04T12:52:39.386Z,81.90
2023-02-04T12:55:09.059Z,81.00
2023-02-04T12:57:36.256Z,79.70
2023-02-04T13:00:04.541Z,80.30
2023-02-04T13:02:31.422Z,80.10
2023-02-04T13:04:58.285Z,81.30
2023-02-04T13:07:25.178Z,80.30
2023-02-04T13:09:52.424Z,79.20
2023-02-04T13:12:19.362Z,79.80
2023-02-04T13:14:46.255Z,79.60
2023-02-04T13:17:13.155Z,79.40
2023-02-04T13:19:40.214Z,79.20
2023-02-04T13:22:07.144Z,79.30
2023-02-04T13:24:34.088Z,78.10
2023-02-04T13:27:01.042Z,78.00
2023-02-04T13:29:27.927Z,78.60
2023-02-04T13:31:54.883Z,79.10
2023-02-04T13:34:21.797Z,79.50
2023-02-04T13:36:48.679Z,79.40
2023-02-04T13:39:15.946Z,79.20
2023-02-04T13:41:42.918Z,79.10
2023-02-04T13:44:09.810Z,78.50
2023-02-04T13:46:36.908Z,79.00
2023-02-04T13:49:04.081Z,79.10
2023-02-04T13:51:31.330Z,79.20
2023-02-04T13:53:59.363Z,78.80
2023-02-04T13:56:27.723Z,79.00
2023-02-04T13:58:54.747Z,79.00
2023-02-04T14:01:21.678Z,79.70
2023-02-04T14:03:48.556Z,80.20
2023-02-04T14:06:15.641Z,80.60
2023-02-04T14:08:42.535Z,79.00
2023-02-04T14:11:09.760Z,78.20
2023-02-04T14:13:36.651Z,78.60
2023-02-04T14:16:03.851Z,78.90
2023-02-04T14:18:30.882Z,79.80
2023-02-04T14:20:57.767Z,79.30
2023-02-04T14:23:24.640Z,78.30
2023-02-04T14:25:51.546Z,79.40
2023-02-04T14:28:18.452Z,79.50
2023-02-04T14:30:45.469Z,79.70
2023-02-04T14:33:12.941Z,80.50
2023-02-04T14:35:39.839Z,80.20
2023-02-04T14:38:06.720Z,80.40
2023-02-04T14:40:33.857Z,78.80
2023-02-04T14:43:00.878Z,79.10
2023-02-04T14:45:27.776Z,79.10
2023-02-04T14:47:57.091Z,79.30
2023-02-04T14:50:27.071Z,79.80
2023-02-04T14:52:56.730Z,79.40
2023-02-04T14:55:24.776Z,79.80
2023-02-04T14:57:51.890Z,80.10
2023-02-04T15:00:20.330Z,80.20
2023-02-04T15:02:47.552Z,80.70
2023-02-04T15:05:15.218Z,80.20
2023-02-04T15:07:42.534Z,80.60
2023-02-04T15:10:10.692Z,80.40
2023-02-04T15:12:37.778Z,80.40
2023-02-04T15:15:06.301Z,80.30
2023-02-04T15:17:33.190Z,80.70
2023-02-04T15:20:00.177Z,80.80
2023-02-04T15:22:27.054Z,81.10
2023-02-04T15:24:53.930Z,81.40
2023-02-04T15:27:20.800Z,81.30
2023-02-04T15:29:47.675Z,81.40
2023-02-04T15:32:14.570Z,81.40
2023-02-04T15:34:41.457Z,81.30
2023-02-04T15:37:10.843Z,81.70
2023-02-04T15:39:38.771Z,81.80
2023-02-04T15:42:05.645Z,82.10
2023-02-04T15:44:32.815Z,82.20
2023-02-04T15:46:59.700Z,82.50
2023-02-04T15:49:26.562Z,82.80
2023-02-04T15:51:53.436Z,82.90
2023-02-04T15:54:20.332Z,83.10
2023-02-04T15:56:47.250Z,83.40
2023-02-04T15:59:15.859Z,83.60
2023-02-04T16:01:42.789Z,83.90
2023-02-04T16:04:09.840Z,83.90
2023-02-04T16:06:36.782Z,84.10
2023-02-04T16:09:04.009Z,84.20
2023-02-04T16:11:31.309Z,84.40
2023-02-04T16:13:58.706Z,84.50
2023-02-04T16:16:25.632Z,84.70
2023-02-04T16:18:52.505Z,84.70
2023-02-04T16:21:19.442Z,84.90
2023-02-04T16:23:47.169Z,85.10
2023-02-04T16:26:14.188Z,85.20
2023-02-04T16:28:41.261Z,85.40
2023-02-04T16:31:11.279Z,85.40
2023-02-04T16:33:38.225Z,85.60
2023-02-04T16:36:08.480Z,85.70
2023-02-04T16:38:36.662Z,85.90
2023-02-04T16:41:03.622Z,86.00
2023-02-04T16:43:30.569Z,86.10
2023-02-04T16:45:57.598Z,86.10
2023-02-04T16:48:24.801Z,86.30
2023-02-04T16:50:51.697Z,86.40
2023-02-04T16:53:18.613Z,86.40
2023-02-04T16:55:47.795Z,86.70
2023-02-04T16:58:15.380Z,87.00
2023-02-04T17:00:43.998Z,87.10
2023-02-04T17:03:14.905Z,87.20
2023-02-04T17:05:42.181Z,87.50
2023-02-04T17:08:09.912Z,87.80
2023-02-04T17:10:56.539Z,87.80
2023-02-04T17:13:23.438Z,88.00
2023-02-04T17:15:50.348Z,87.90
2023-02-04T17:18:17.318Z,87.90
2023-02-04T17:20:44.238Z,88.20
2023-02-04T17:23:11.142Z,88.30
2023-02-04T17:25:38.013Z,88.20
2023-02-04T17:28:04.970Z,88.30
2023-02-04T17:30:32.058Z,88.30
2023-02-04T17:32:58.983Z,88.30
2023-02-04T17:35:26.065Z,88.30
2023-02-04T17:37:53.862Z,88.40
2023-02-04T17:40:20.821Z,88.50
2023-02-04T17:42:47.735Z,88.50
2023-02-04T17:45:14.625Z,88.50
2023-02-04T17:47:41.582Z,88.60
2023-02-04T17:50:10.551Z,88.60
2023-02-04T17:52:38.343Z,88.50
2023-02-04T17:55:29.184Z,88.60
2023-02-04T17:58:00.254Z,88.60
2023-02-04T18:00:30.791Z,88.60
2023-02-04T18:02:58.726Z,88.50
2023-02-04T18:05:28.268Z,88.60
2023-02-04T18:08:21.623Z,88.90
2023-02-04T18:10:51.184Z,89.00
2023-02-04T18:13:20.454Z,89.00
2023-02-04T18:15:58.387Z,89.00
2023-02-04T18:18:35.987Z,89.20
2023-02-04T18:21:41.844Z,89.60
2023-02-04T18:24:18.784Z,90.10
2023-02-04T18:26:49.055Z,90.10
2023-02-04T18:29:38.956Z,90.10
2023-02-04T18:32:08.837Z,90.20
2023-02-04T18:34:43.825Z,90.20
2023-02-04T18:37:41.152Z,90.30
2023-02-04T18:40:11.604Z,90.30
2023-02-04T18:42:42.722Z,90.60
2023-02-04T18:45:31.646Z,90.20
2023-02-04T18:48:01.418Z,90.30
2023-02-04T18:50:32.580Z,90.20
2023-02-04T18:53:15.120Z,90.30
2023-02-04T18:55:51.774Z,90.30
2023-02-04T18:58:37.643Z,90.30
2023-02-04T19:01:10.728Z,90.40
2023-02-04T19:03:49.103Z,90.50
2023-02-04T19:06:25.457Z,90.50
2023-02-04T19:08:53.665Z,90.60
2023-02-04T19:11:39.010Z,90.70
2023-02-04T19:14:30.472Z,90.80
2023-02-04T19:17:29.748Z,90.80
2023-02-04T19:20:18.038Z,90.90
2023-02-04T19:22:55.730Z,90.90
2023-02-04T19:25:46.748Z,90.80
2023-02-04T19:28:30.279Z,90.90
2023-02-04T19:31:05.150Z,90.90
2023-02-04T19:33:43.107Z,90.90
2023-02-04T19:36:37.138Z,90.90
2023-02-04T19:39:40.209Z,91.10
2023-02-04T19:42:31.494Z,91.10
2023-02-04T19:45:19.377Z,91.10
2023-02-04T19:47:46.391Z,91.10
2023-02-04T19:50:13.343Z,91.10
2023-02-04T19:53:02.010Z,91.10
2023-02-04T19:55:36.615Z,91.10
2023-02-04T19:58:16.309Z,91.10
2023-02-04T20:00:54.196Z,91.10
2023-02-04T20:03:44.776Z,91.00
2023-02-04T20:06:27.509Z,90.80
2023-02-04T20:09:29.151Z,90.60
2023-02-04T20:12:12.391Z,90.50
2023-02-04T20:14:49.620Z,90.40
2023-02-04T20:17:40.710Z,90.30
2023-02-04T20:20:29.344Z,90.30
2023-02-04T20:23:27.662Z,90.30
2023-02-04T20:25:56.198Z,90.30
2023-02-04T20:28:41.940Z,90.40
2023-02-04T20:31:39.512Z,90.50
2023-02-04T20:34:24.608Z,90.50
2023-02-04T20:36:52.300Z,90.60
2023-02-04T20:39:28.655Z,90.60
2023-02-04T20:42:17.741Z,90.60
2023-02-04T20:44:46.928Z,90.70
2023-02-04T20:47:25.262Z,90.60
2023-02-04T20:49:56.352Z,90.60
2023-02-04T20:52:41.441Z,90.60
2023-02-04T20:55:23.105Z,90.60
2023-02-04T20:57:53.482Z,90.60
2023-02-04T21:00:32.263Z,90.60
2023-02-04T21:03:26.197Z,90.60
2023-02-04T21:05:55.764Z,90.80
2023-02-04T21:08:45.472Z,90.80
2023-02-04T21:11:12.443Z,90.90
2023-02-04T21:13:40.951Z,91.00
2023-02-04T21:16:08.778Z,91.00
2023-02-04T21:18:35.899Z,91.20
2023-02-04T21:21:04.987Z,91.20
2023-02-04T21:23:31.921Z,91.30
2023-02-04T21:25:58.897Z,91.30
2023-02-04T21:28:25.931Z,91.30
2023-02-04T21:30:52.865Z,91.50
2023-02-04T21:33:19.828Z,91.40
2023-02-04T21:35:46.796Z,91.50
2023-02-04T21:38:13.776Z,91.60
2023-02-04T21:40:40.817Z,91.80
2023-02-04T21:43:08.328Z,91.90
2023-02-04T21:45:37.865Z,91.90
2023-02-04T21:48:06.124Z,92.10
2023-02-04T21:50:33.179Z,92.10
2023-02-04T21:53:00.375Z,92.20
2023-02-04T21:55:28.686Z,92.20
2023-02-04T21:57:55.600Z,92.30
2023-02-04T22:00:23.846Z,92.30
2023-02-04T22:02:52.701Z,92.40
2023-02-04T22:05:21.535Z,92.40
2023-02-04T22:07:49.123Z,92.40
2023-02-04T22:10:25.625Z,92.40
2023-02-04T22:12:52.763Z,92.40
2023-02-04T22:15:24.039Z,92.30
2023-02-04T22:17:53.663Z,92.30
2023-02-04T22:20:23.118Z,92.40
2023-02-04T22:22:50.418Z,92.40
2023-02-04T22:25:20.032Z,92.30
2023-02-04T22:27:46.981Z,92.40
2023-02-04T22:30:15.714Z,92.30
2023-02-04T22:32:42.689Z,92.30
2023-02-04T22:35:11.265Z,92.20
2023-02-04T22:37:39.882Z,92.30
2023-02-04T22:40:08.826Z,92.30
2023-02-04T22:42:35.724Z,92.30
2023-02-04T22:45:03.788Z,92.40
2023-02-04T22:47:31.452Z,92.30
2023-02-04T22:49:58.408Z,92.30
2023-02-04T22:52:25.309Z,92.30
2023-02-04T22:54:52.725Z,92.30
2023-02-04T22:57:19.625Z,92.40
2023-02-04T22:59:46.535Z,92.30
2023-02-04T23:02:13.488Z,92.40
2023-02-04T23:04:42.435Z,92.40
2023-02-04T23:07:11.193Z,92.40
2023-02-04T23:09:38.097Z,92.40
2023-02-04T23:12:14.955Z,92.30
2023-02-04T23:14:47.663Z,92.40
2023-02-04T23:17:16.581Z,92.40
2023-02-04T23:19:43.963Z,92.40
2023-02-04T23:22:12.576Z,92.50
2023-02-04T23:24:40.691Z,92.50
2023-02-04T23:27:10.814Z,92.50
2023-02-04T23:29:39.530Z,92.50
2023-02-04T23:32:07.299Z,92.50
2023-02-04T23:34:34.578Z,92.50
2023-02-04T23:37:01.806Z,92.50
2023-02-04T23:39:28.824Z,92.50
2023-02-04T23:41:55.797Z,92.50
2023-02-04T23:44:23.100Z,92.50
2023-02-04T23:46:50.058Z,92.40
2023-02-04T23:49:17.112Z,92.50
2023-02-04T23:51:44.097Z,92.50
2023-02-04T23:54:11.026Z,92.50
2023-02-04T23:56:38.143Z,92.50
2023-02-04T23:59:05.771Z,92.60
